sensor_id;sensor_type;location;lat;lon;timestamp;pressure;altitude;pressure_sealevel;temperature;humidity
27210;BME280;14721;42.668;23.386;2023-04-16T00:00:09;94737.06;;;12.21;56.65
27210;BME280;14721;42.668;23.386;2023-04-16T00:02:34;94741.13;;;12.06;54.83
27210;BME280;14721;42.668;23.386;2023-04-16T00:05:00;94745.44;;;11.88;56.56
27210;BME280;14721;42.668;23.386;2023-04-16T00:07:25;94744.38;;;11.49;56.70
27210;BME280;14721;42.668;23.386;2023-04-16T00:09:52;94736.81;;;11.33;57.61
27210;BME280;14721;42.668;23.386;2023-04-16T00:12:18;94744.56;;;11.27;57.33
27210;BME280;14721;42.668;23.386;2023-04-16T00:14:43;94734.13;;;11.24;57.35
27210;BME280;14721;42.668;23.386;2023-04-16T00:17:09;94735.81;;;11.04;57.11
27210;BME280;14721;42.668;23.386;2023-04-16T00:19:35;94731.41;;;10.94;57.53
27210;BME280;14721;42.668;23.386;2023-04-16T00:22:00;94744.75;;;10.94;57.62
27210;BME280;14721;42.668;23.386;2023-04-16T00:24:26;94740.88;;;10.87;58.00
27210;BME280;14721;42.668;23.386;2023-04-16T00:26:52;94748.25;;;10.94;58.59
27210;BME280;14721;42.668;23.386;2023-04-16T00:29:17;94732.56;;;11.01;57.50
27210;BME280;14721;42.668;23.386;2023-04-16T00:31:43;94740.44;;;11.02;57.49
27210;BME280;14721;42.668;23.386;2023-04-16T00:34:08;94730.91;;;11.09;57.59
27210;BME280;14721;42.668;23.386;2023-04-16T00:36:34;94732.41;;;11.23;56.75
27210;BME280;14721;42.668;23.386;2023-04-16T00:38:59;94743.38;;;11.20;56.71
27210;BME280;14721;42.668;23.386;2023-04-16T00:41:25;94737.91;;;11.01;58.00
27210;BME280;14721;42.668;23.386;2023-04-16T00:43:51;94746.50;;;10.84;58.17
27210;BME280;14721;42.668;23.386;2023-04-16T00:46:18;94742.19;;;10.72;58.12
27210;BME280;14721;42.668;23.386;2023-04-16T00:48:46;94735.41;;;10.68;57.97
27210;BME280;14721;42.668;23.386;2023-04-16T00:51:11;94734.81;;;10.64;58.15
27210;BME280;14721;42.668;23.386;2023-04-16T00:53:37;94732.19;;;10.53;58.42
27210;BME280;14721;42.668;23.386;2023-04-16T00:56:05;94740.09;;;10.55;58.66
27210;BME280;14721;42.668;23.386;2023-04-16T00:58:32;94736.81;;;10.51;58.96
27210;BME280;14721;42.668;23.386;2023-04-16T01:00:58;94731.34;;;10.53;59.93
27210;BME280;14721;42.668;23.386;2023-04-16T01:03:45;94736.34;;;10.46;60.06
27210;BME280;14721;42.668;23.386;2023-04-16T01:06:11;94729.81;;;10.39;59.94
27210;BME280;14721;42.668;23.386;2023-04-16T01:08:36;94737.53;;;10.53;59.24
27210;BME280;14721;42.668;23.386;2023-04-16T01:11:02;94729.81;;;10.71;59.17
27210;BME280;14721;42.668;23.386;2023-04-16T01:13:28;94733.66;;;10.78;59.26
27210;BME280;14721;42.668;23.386;2023-04-16T01:15:54;94718.81;;;10.85;58.92
27210;BME280;14721;42.668;23.386;2023-04-16T01:18:21;94728.38;;;10.67;59.11
27210;BME280;14721;42.668;23.386;2023-04-16T01:20:48;94725.63;;;10.57;59.66
27210;BME280;14721;42.668;23.386;2023-04-16T01:23:13;94739.59;;;10.50;59.81
27210;BME280;14721;42.668;23.386;2023-04-16T01:25:39;94738.13;;;10.25;60.09
27210;BME280;14721;42.668;23.386;2023-04-16T01:28:06;94734.88;;;10.11;60.89
27210;BME280;14721;42.668;23.386;2023-04-16T01:30:32;94731.84;;;10.15;60.40
27210;BME280;14721;42.668;23.386;2023-04-16T01:32:57;94732.78;;;10.25;61.67
27210;BME280;14721;42.668;23.386;2023-04-16T01:35:23;94729.91;;;10.17;63.04
27210;BME280;14721;42.668;23.386;2023-04-16T01:37:50;94724.31;;;10.09;62.29
27210;BME280;14721;42.668;23.386;2023-04-16T01:40:17;94723.72;;;10.06;61.43
27210;BME280;14721;42.668;23.386;2023-04-16T01:42:43;94729.94;;;9.95;62.23
27210;BME280;14721;42.668;23.386;2023-04-16T01:45:08;94730.38;;;10.22;61.66
27210;BME280;14721;42.668;23.386;2023-04-16T01:47:34;94727.38;;;10.47;60.26
27210;BME280;14721;42.668;23.386;2023-04-16T01:50:00;94729.59;;;10.63;59.66
27210;BME280;14721;42.668;23.386;2023-04-16T01:52:26;94722.78;;;10.70;58.94
27210;BME280;14721;42.668;23.386;2023-04-16T01:54:51;94724.00;;;10.66;58.20
27210;BME280;14721;42.668;23.386;2023-04-16T01:57:17;94724.88;;;10.55;58.40
27210;BME280;14721;42.668;23.386;2023-04-16T01:59:42;94723.84;;;10.47;58.44
27210;BME280;14721;42.668;23.386;2023-04-16T02:02:12;94717.34;;;10.29;58.62
27210;BME280;14721;42.668;23.386;2023-04-16T02:04:40;94720.88;;;10.29;59.10
27210;BME280;14721;42.668;23.386;2023-04-16T02:07:07;94721.13;;;10.26;59.34
27210;BME280;14721;42.668;23.386;2023-04-16T02:09:37;94712.75;;;10.31;59.00
27210;BME280;14721;42.668;23.386;2023-04-16T02:12:02;94718.47;;;10.26;59.78
27210;BME280;14721;42.668;23.386;2023-04-16T02:14:32;94714.03;;;10.36;59.94
27210;BME280;14721;42.668;23.386;2023-04-16T02:16:58;94712.13;;;10.27;59.72
27210;BME280;14721;42.668;23.386;2023-04-16T02:19:23;94711.69;;;10.22;60.24
27210;BME280;14721;42.668;23.386;2023-04-16T02:21:53;94715.78;;;10.26;60.52
27210;BME280;14721;42.668;23.386;2023-04-16T02:24:19;94704.59;;;10.32;60.14
27210;BME280;14721;42.668;23.386;2023-04-16T02:26:46;94707.31;;;10.53;60.28
27210;BME280;14721;42.668;23.386;2023-04-16T02:29:12;94710.06;;;10.62;59.72
27210;BME280;14721;42.668;23.386;2023-04-16T02:31:38;94708.91;;;10.76;59.64
27210;BME280;14721;42.668;23.386;2023-04-16T02:34:04;94715.53;;;10.61;60.47
27210;BME280;14721;42.668;23.386;2023-04-16T02:36:30;94711.75;;;10.32;60.36
27210;BME280;14721;42.668;23.386;2023-04-16T02:38:57;94711.88;;;10.30;61.31
27210;BME280;14721;42.668;23.386;2023-04-16T02:41:22;94706.41;;;10.32;61.69
27210;BME280;14721;42.668;23.386;2023-04-16T02:43:48;94707.34;;;10.10;62.25
27210;BME280;14721;42.668;23.386;2023-04-16T02:46:13;94690.59;;;10.08;62.79
27210;BME280;14721;42.668;23.386;2023-04-16T02:48:39;94701.59;;;10.26;62.81
27210;BME280;14721;42.668;23.386;2023-04-16T02:51:04;94702.19;;;10.29;62.57
27210;BME280;14721;42.668;23.386;2023-04-16T02:53:30;94700.66;;;10.16;62.92
27210;BME280;14721;42.668;23.386;2023-04-16T02:55:55;94699.78;;;10.15;63.51
27210;BME280;14721;42.668;23.386;2023-04-16T02:58:23;94696.19;;;10.16;63.51
27210;BME280;14721;42.668;23.386;2023-04-16T03:00:53;94695.19;;;10.06;64.24
27210;BME280;14721;42.668;23.386;2023-04-16T03:03:19;94691.81;;;10.04;64.37
27210;BME280;14721;42.668;23.386;2023-04-16T03:05:45;94689.47;;;10.22;63.18
27210;BME280;14721;42.668;23.386;2023-04-16T03:08:11;94699.72;;;10.37;63.24
27210;BME280;14721;42.668;23.386;2023-04-16T03:10:37;94687.44;;;10.46;62.52
27210;BME280;14721;42.668;23.386;2023-04-16T03:13:03;94701.56;;;10.57;62.40
27210;BME280;14721;42.668;23.386;2023-04-16T03:15:29;94710.84;;;10.53;61.71
27210;BME280;14721;42.668;23.386;2023-04-16T03:17:56;94701.81;;;10.34;62.69
27210;BME280;14721;42.668;23.386;2023-04-16T03:20:22;94700.53;;;10.06;63.65
27210;BME280;14721;42.668;23.386;2023-04-16T03:22:48;94694.63;;;9.92;63.94
27210;BME280;14721;42.668;23.386;2023-04-16T03:25:14;94699.69;;;10.06;64.09
27210;BME280;14721;42.668;23.386;2023-04-16T03:27:39;94701.19;;;9.88;63.96
27210;BME280;14721;42.668;23.386;2023-04-16T03:30:10;94695.59;;;9.91;64.98
27210;BME280;14721;42.668;23.386;2023-04-16T03:32:35;94700.31;;;9.98;64.95
27210;BME280;14721;42.668;23.386;2023-04-16T03:35:02;94705.28;;;10.03;64.62
27210;BME280;14721;42.668;23.386;2023-04-16T03:37:27;94703.94;;;10.08;65.01
27210;BME280;14721;42.668;23.386;2023-04-16T03:39:53;94703.50;;;9.92;65.03
27210;BME280;14721;42.668;23.386;2023-04-16T03:42:20;94705.66;;;9.98;65.19
27210;BME280;14721;42.668;23.386;2023-04-16T03:44:45;94708.53;;;10.06;64.96
27210;BME280;14721;42.668;23.386;2023-04-16T03:47:11;94707.31;;;10.21;63.94
27210;BME280;14721;42.668;23.386;2023-04-16T03:49:36;94704.59;;;10.32;63.27
27210;BME280;14721;42.668;23.386;2023-04-16T03:52:02;94711.34;;;10.47;62.25
27210;BME280;14721;42.668;23.386;2023-04-16T03:54:27;94704.50;;;10.54;61.86
27210;BME280;14721;42.668;23.386;2023-04-16T03:56:54;94711.53;;;10.55;61.25
27210;BME280;14721;42.668;23.386;2023-04-16T03:59:21;94706.75;;;10.38;61.74
27210;BME280;14721;42.668;23.386;2023-04-16T04:01:46;94721.56;;;10.31;62.12
27210;BME280;14721;42.668;23.386;2023-04-16T04:04:12;94720.78;;;10.20;63.04
27210;BME280;14721;42.668;23.386;2023-04-16T04:06:39;94719.22;;;10.17;62.61
27210;BME280;14721;42.668;23.386;2023-04-16T04:09:05;94723.81;;;10.15;63.12
27210;BME280;14721;42.668;23.386;2023-04-16T04:11:31;94729.84;;;10.28;62.80
27210;BME280;14721;42.668;23.386;2023-04-16T04:13:57;94728.38;;;10.35;62.47
27210;BME280;14721;42.668;23.386;2023-04-16T04:16:22;94728.28;;;10.26;62.17
27210;BME280;14721;42.668;23.386;2023-04-16T04:18:51;94737.94;;;10.38;62.85
27210;BME280;14721;42.668;23.386;2023-04-16T04:21:16;94729.78;;;10.50;62.19
27210;BME280;14721;42.668;23.386;2023-04-16T04:23:42;94739.31;;;10.64;62.34
27210;BME280;14721;42.668;23.386;2023-04-16T04:26:08;94736.19;;;10.79;62.38
27210;BME280;14721;42.668;23.386;2023-04-16T04:28:34;94742.78;;;10.75;62.37
27210;BME280;14721;42.668;23.386;2023-04-16T04:31:00;94746.09;;;10.88;61.97
27210;BME280;14721;42.668;23.386;2023-04-16T04:33:26;94739.97;;;10.97;62.77
27210;BME280;14721;42.668;23.386;2023-04-16T04:35:52;94740.56;;;11.01;61.97
27210;BME280;14721;42.668;23.386;2023-04-16T04:38:18;94747.56;;;10.92;62.96
27210;BME280;14721;42.668;23.386;2023-04-16T04:40:49;94736.78;;;10.83;62.76
27210;BME280;14721;42.668;23.386;2023-04-16T04:43:15;94747.34;;;10.84;62.34
27210;BME280;14721;42.668;23.386;2023-04-16T04:45:40;94754.75;;;10.81;62.59
27210;BME280;14721;42.668;23.386;2023-04-16T04:48:06;94750.44;;;10.69;62.35
27210;BME280;14721;42.668;23.386;2023-04-16T04:50:31;94759.19;;;10.71;63.15
27210;BME280;14721;42.668;23.386;2023-04-16T04:52:57;94751.47;;;10.57;64.89
27210;BME280;14721;42.668;23.386;2023-04-16T04:55:23;94753.06;;;10.59;64.80
27210;BME280;14721;42.668;23.386;2023-04-16T04:57:48;94762.03;;;10.58;64.50
27210;BME280;14721;42.668;23.386;2023-04-16T05:00:14;94761.91;;;10.60;64.93
27210;BME280;14721;42.668;23.386;2023-04-16T05:02:40;94749.53;;;10.59;64.90
27210;BME280;14721;42.668;23.386;2023-04-16T05:05:06;94759.06;;;10.72;65.32
27210;BME280;14721;42.668;23.386;2023-04-16T05:07:32;94756.53;;;10.71;64.98
27210;BME280;14721;42.668;23.386;2023-04-16T05:09:57;94760.31;;;10.68;65.10
27210;BME280;14721;42.668;23.386;2023-04-16T05:12:23;94746.69;;;10.71;64.02
27210;BME280;14721;42.668;23.386;2023-04-16T05:14:48;94745.47;;;10.64;63.59
27210;BME280;14721;42.668;23.386;2023-04-16T05:17:14;94737.72;;;10.61;64.03
27210;BME280;14721;42.668;23.386;2023-04-16T05:19:39;94756.44;;;10.61;64.83
27210;BME280;14721;42.668;23.386;2023-04-16T05:22:05;94754.34;;;10.65;65.40
27210;BME280;14721;42.668;23.386;2023-04-16T05:24:31;94751.31;;;10.69;64.81
27210;BME280;14721;42.668;23.386;2023-04-16T05:26:56;94751.19;;;10.71;65.06
27210;BME280;14721;42.668;23.386;2023-04-16T05:29:22;94748.38;;;10.72;65.49
27210;BME280;14721;42.668;23.386;2023-04-16T05:31:48;94753.22;;;10.78;64.28
27210;BME280;14721;42.668;23.386;2023-04-16T05:34:13;94745.97;;;10.90;63.61
27210;BME280;14721;42.668;23.386;2023-04-16T05:36:39;94754.16;;;11.09;62.89
27210;BME280;14721;42.668;23.386;2023-04-16T05:39:05;94752.03;;;11.12;62.15
27210;BME280;14721;42.668;23.386;2023-04-16T05:41:32;94751.84;;;11.25;61.57
27210;BME280;14721;42.668;23.386;2023-04-16T05:43:57;94747.81;;;11.61;60.85
27210;BME280;14721;42.668;23.386;2023-04-16T05:46:23;94746.50;;;11.76;60.30
27210;BME280;14721;42.668;23.386;2023-04-16T05:48:49;94751.81;;;11.96;59.77
27210;BME280;14721;42.668;23.386;2023-04-16T05:51:16;94749.69;;;12.00;59.48
27210;BME280;14721;42.668;23.386;2023-04-16T05:53:42;94756.22;;;12.16;59.46
27210;BME280;14721;42.668;23.386;2023-04-16T05:56:08;94760.03;;;12.14;58.71
27210;BME280;14721;42.668;23.386;2023-04-16T05:58:34;94758.84;;;11.97;58.95
27210;BME280;14721;42.668;23.386;2023-04-16T06:01:00;94754.00;;;11.82;59.73
27210;BME280;14721;42.668;23.386;2023-04-16T06:03:26;94753.84;;;11.74;60.26
27210;BME280;14721;42.668;23.386;2023-04-16T06:05:52;94743.69;;;11.77;60.40
27210;BME280;14721;42.668;23.386;2023-04-16T06:08:17;94746.59;;;11.95;60.82
27210;BME280;14721;42.668;23.386;2023-04-16T06:10:46;94742.97;;;12.05;60.66
27210;BME280;14721;42.668;23.386;2023-04-16T06:13:12;94745.38;;;12.18;60.37
27210;BME280;14721;42.668;23.386;2023-04-16T06:15:37;94747.91;;;12.10;59.94
27210;BME280;14721;42.668;23.386;2023-04-16T06:18:03;94747.22;;;12.27;59.59
27210;BME280;14721;42.668;23.386;2023-04-16T06:20:29;94747.41;;;12.54;59.41
27210;BME280;14721;42.668;23.386;2023-04-16T06:22:55;94739.84;;;12.87;57.70
27210;BME280;14721;42.668;23.386;2023-04-16T06:25:24;94739.09;;;13.33;55.99
27210;BME280;14721;42.668;23.386;2023-04-16T06:27:50;94745.69;;;13.58;55.39
27210;BME280;14721;42.668;23.386;2023-04-16T06:30:15;94741.44;;;13.92;52.96
27210;BME280;14721;42.668;23.386;2023-04-16T06:32:42;94739.38;;;14.13;52.21
27210;BME280;14721;42.668;23.386;2023-04-16T06:35:08;94739.25;;;14.41;52.09
27210;BME280;14721;42.668;23.386;2023-04-16T06:37:33;94740.25;;;14.40;52.04
27210;BME280;14721;42.668;23.386;2023-04-16T06:40:00;94737.41;;;14.42;51.57
27210;BME280;14721;42.668;23.386;2023-04-16T06:42:25;94733.97;;;14.49;51.54
27210;BME280;14721;42.668;23.386;2023-04-16T06:44:51;94739.47;;;14.75;50.20
27210;BME280;14721;42.668;23.386;2023-04-16T06:47:17;94741.53;;;14.81;49.99
27210;BME280;14721;42.668;23.386;2023-04-16T06:49:42;94741.16;;;14.93;50.17
27210;BME280;14721;42.668;23.386;2023-04-16T06:52:08;94743.72;;;15.56;49.14
27210;BME280;14721;42.668;23.386;2023-04-16T06:54:34;94747.13;;;15.83;48.33
27210;BME280;14721;42.668;23.386;2023-04-16T06:56:59;94740.34;;;15.79;47.77
27210;BME280;14721;42.668;23.386;2023-04-16T06:59:24;94736.19;;;15.85;48.04
27210;BME280;14721;42.668;23.386;2023-04-16T07:01:51;94731.09;;;16.07;48.55
27210;BME280;14721;42.668;23.386;2023-04-16T07:04:16;94727.38;;;16.42;47.95
27210;BME280;14721;42.668;23.386;2023-04-16T07:06:42;94721.94;;;16.83;46.65
27210;BME280;14721;42.668;23.386;2023-04-16T07:09:07;94723.50;;;17.10;46.42
27210;BME280;14721;42.668;23.386;2023-04-16T07:11:33;94724.88;;;17.38;45.65
27210;BME280;14721;42.668;23.386;2023-04-16T07:13:58;94724.53;;;17.49;45.38
27210;BME280;14721;42.668;23.386;2023-04-16T07:16:24;94721.97;;;17.00;44.92
27210;BME280;14721;42.668;23.386;2023-04-16T07:18:50;94735.72;;;16.72;46.13
27210;BME280;14721;42.668;23.386;2023-04-16T07:21:15;94740.47;;;16.78;46.15
27210;BME280;14721;42.668;23.386;2023-04-16T07:23:41;94740.44;;;16.62;46.69
27210;BME280;14721;42.668;23.386;2023-04-16T07:26:06;94738.13;;;16.83;47.38
27210;BME280;14721;42.668;23.386;2023-04-16T07:28:32;94728.53;;;16.89;47.02
27210;BME280;14721;42.668;23.386;2023-04-16T07:30:57;94730.72;;;16.85;46.52
27210;BME280;14721;42.668;23.386;2023-04-16T07:33:23;94730.88;;;16.92;46.79
27210;BME280;14721;42.668;23.386;2023-04-16T07:35:54;94734.63;;;17.15;46.94
27210;BME280;14721;42.668;23.386;2023-04-16T07:38:19;94729.94;;;17.33;45.97
27210;BME280;14721;42.668;23.386;2023-04-16T07:40:45;94727.03;;;17.83;45.15
27210;BME280;14721;42.668;23.386;2023-04-16T07:43:12;94719.72;;;18.07;43.94
27210;BME280;14721;42.668;23.386;2023-04-16T07:45:39;94725.25;;;18.68;43.14
27210;BME280;14721;42.668;23.386;2023-04-16T07:48:05;94715.91;;;18.79;42.83
27210;BME280;14721;42.668;23.386;2023-04-16T07:50:30;94720.50;;;19.01;42.67
27210;BME280;14721;42.668;23.386;2023-04-16T07:52:56;94721.88;;;18.97;43.02
27210;BME280;14721;42.668;23.386;2023-04-16T07:55:21;94728.03;;;18.52;44.16
27210;BME280;14721;42.668;23.386;2023-04-16T07:57:47;94719.19;;;18.20;44.85
27210;BME280;14721;42.668;23.386;2023-04-16T08:00:12;94719.94;;;17.90;46.02
27210;BME280;14721;42.668;23.386;2023-04-16T08:02:38;94719.81;;;17.75;46.65
27210;BME280;14721;42.668;23.386;2023-04-16T08:05:04;94722.91;;;18.19;46.58
27210;BME280;14721;42.668;23.386;2023-04-16T08:07:30;94725.34;;;18.83;45.29
27210;BME280;14721;42.668;23.386;2023-04-16T08:09:55;94713.16;;;19.10;44.04
27210;BME280;14721;42.668;23.386;2023-04-16T08:12:21;94718.59;;;19.55;43.75
27210;BME280;14721;42.668;23.386;2023-04-16T08:14:46;94707.06;;;20.12;41.72
27210;BME280;14721;42.668;23.386;2023-04-16T08:17:13;94703.75;;;20.75;40.75
27210;BME280;14721;42.668;23.386;2023-04-16T08:19:38;94707.19;;;20.84;39.77
27210;BME280;14721;42.668;23.386;2023-04-16T08:22:04;94693.56;;;20.77;39.99
27210;BME280;14721;42.668;23.386;2023-04-16T08:24:30;94690.50;;;20.51;40.91
27210;BME280;14721;42.668;23.386;2023-04-16T08:26:55;94686.22;;;20.13;41.24
27210;BME280;14721;42.668;23.386;2023-04-16T08:29:21;94700.34;;;20.52;41.29
27210;BME280;14721;42.668;23.386;2023-04-16T08:31:49;94701.09;;;20.46;40.94
27210;BME280;14721;42.668;23.386;2023-04-16T08:34:14;94692.19;;;21.02;41.02
27210;BME280;14721;42.668;23.386;2023-04-16T08:36:40;94689.03;;;21.20;39.83
27210;BME280;14721;42.668;23.386;2023-04-16T08:39:05;94678.63;;;20.88;39.47
27210;BME280;14721;42.668;23.386;2023-04-16T08:41:31;94683.06;;;20.60;40.84
27210;BME280;14721;42.668;23.386;2023-04-16T08:44:08;94671.91;;;20.98;40.57
27210;BME280;14721;42.668;23.386;2023-04-16T08:46:37;94680.13;;;21.26;39.47
27210;BME280;14721;42.668;23.386;2023-04-16T08:49:05;94678.22;;;21.89;38.21
27210;BME280;14721;42.668;23.386;2023-04-16T08:51:34;94674.34;;;21.77;37.71
27210;BME280;14721;42.668;23.386;2023-04-16T08:54:35;94672.44;;;21.99;37.93
27210;BME280;14721;42.668;23.386;2023-04-16T08:57:05;94670.06;;;21.68;37.87
27210;BME280;14721;42.668;23.386;2023-04-16T08:59:31;94668.81;;;21.71;38.56
27210;BME280;14721;42.668;23.386;2023-04-16T09:01:57;94666.50;;;21.47;37.56
27210;BME280;14721;42.668;23.386;2023-04-16T09:04:25;94668.31;;;20.98;38.83
27210;BME280;14721;42.668;23.386;2023-04-16T09:06:53;94652.53;;;20.36;39.96
27210;BME280;14721;42.668;23.386;2023-04-16T09:09:20;94671.66;;;20.06;39.66
27210;BME280;14721;42.668;23.386;2023-04-16T09:11:50;94663.59;;;19.69;40.40
27210;BME280;14721;42.668;23.386;2023-04-16T09:14:16;94657.19;;;19.47;41.42
27210;BME280;14721;42.668;23.386;2023-04-16T09:16:43;94654.09;;;19.36;42.11
27210;BME280;14721;42.668;23.386;2023-04-16T09:19:09;94661.59;;;19.48;42.34
27210;BME280;14721;42.668;23.386;2023-04-16T09:21:35;94651.72;;;19.55;41.16
27210;BME280;14721;42.668;23.386;2023-04-16T09:24:01;94660.88;;;19.69;41.96
27210;BME280;14721;42.668;23.386;2023-04-16T09:26:27;94661.84;;;19.90;41.29
27210;BME280;14721;42.668;23.386;2023-04-16T09:28:54;94660.44;;;19.94;41.23
27210;BME280;14721;42.668;23.386;2023-04-16T09:31:20;94664.19;;;19.93;41.37
27210;BME280;14721;42.668;23.386;2023-04-16T09:36:26;94661.94;;;19.97;41.89
27210;BME280;14721;42.668;23.386;2023-04-16T09:38:53;94665.94;;;19.72;41.33
27210;BME280;14721;42.668;23.386;2023-04-16T09:41:19;94660.44;;;19.43;42.24
27210;BME280;14721;42.668;23.386;2023-04-16T09:43:59;94655.56;;;19.16;42.21
27210;BME280;14721;42.668;23.386;2023-04-16T09:46:41;94645.81;;;19.07;42.78
27210;BME280;14721;42.668;23.386;2023-04-16T09:49:14;94651.19;;;19.15;43.52
27210;BME280;14721;42.668;23.386;2023-04-16T09:51:41;94643.13;;;19.07;42.36
27210;BME280;14721;42.668;23.386;2023-04-16T09:54:07;94638.44;;;19.01;42.62
27210;BME280;14721;42.668;23.386;2023-04-16T09:56:38;94642.88;;;19.16;42.56
27210;BME280;14721;42.668;23.386;2023-04-16T09:59:04;94637.53;;;19.31;41.67
27210;BME280;14721;42.668;23.386;2023-04-16T10:01:30;94642.34;;;19.43;42.27
27210;BME280;14721;42.668;23.386;2023-04-16T10:04:00;94634.97;;;19.52;41.05
27210;BME280;14721;42.668;23.386;2023-04-16T10:06:28;94636.38;;;19.48;41.91
27210;BME280;14721;42.668;23.386;2023-04-16T10:08:53;94634.69;;;19.47;41.12
27210;BME280;14721;42.668;23.386;2023-04-16T10:11:22;94632.63;;;19.49;40.50
27210;BME280;14721;42.668;23.386;2023-04-16T10:13:48;94630.09;;;19.47;40.54
27210;BME280;14721;42.668;23.386;2023-04-16T10:16:15;94628.44;;;19.61;41.63
27210;BME280;14721;42.668;23.386;2023-04-16T10:18:43;94615.63;;;19.55;40.78
27210;BME280;14721;42.668;23.386;2023-04-16T10:21:09;94621.84;;;19.78;40.33
27210;BME280;14721;42.668;23.386;2023-04-16T10:23:40;94620.91;;;19.71;39.93
27210;BME280;14721;42.668;23.386;2023-04-16T10:26:05;94615.00;;;19.82;39.13
27210;BME280;14721;42.668;23.386;2023-04-16T10:28:31;94613.81;;;20.13;38.62
27210;BME280;14721;42.668;23.386;2023-04-16T10:31:01;94592.38;;;20.04;38.95
27210;BME280;14721;42.668;23.386;2023-04-16T10:33:30;94607.91;;;20.10;39.05
27210;BME280;14721;42.668;23.386;2023-04-16T10:36:25;94604.38;;;19.95;39.29
27210;BME280;14721;42.668;23.386;2023-04-16T10:38:52;94608.66;;;19.60;40.14
27210;BME280;14721;42.668;23.386;2023-04-16T10:41:21;94606.44;;;19.41;40.01
27210;BME280;14721;42.668;23.386;2023-04-16T10:43:48;94614.50;;;19.64;39.97
27210;BME280;14721;42.668;23.386;2023-04-16T10:46:19;94608.34;;;19.70;39.70
27210;BME280;14721;42.668;23.386;2023-04-16T10:48:46;94612.31;;;19.96;39.44
27210;BME280;14721;42.668;23.386;2023-04-16T10:51:32;94608.91;;;20.09;38.98
27210;BME280;14721;42.668;23.386;2023-04-16T10:56:33;94594.88;;;20.34;38.54
27210;BME280;14721;42.668;23.386;2023-04-16T10:58:59;94595.72;;;20.71;38.38
27210;BME280;14721;42.668;23.386;2023-04-16T11:01:30;94601.25;;;20.77;37.70
27210;BME280;14721;42.668;23.386;2023-04-16T11:04:01;94590.50;;;20.33;38.33
27210;BME280;14721;42.668;23.386;2023-04-16T11:09:57;94590.50;;;19.90;38.56
27210;BME280;14721;42.668;23.386;2023-04-16T11:12:42;94587.44;;;19.78;39.30
27210;BME280;14721;42.668;23.386;2023-04-16T11:15:10;94590.78;;;19.66;39.36
27210;BME280;14721;42.668;23.386;2023-04-16T11:17:39;94584.97;;;19.40;39.88
27210;BME280;14721;42.668;23.386;2023-04-16T11:20:07;94564.84;;;19.20;40.36
27210;BME280;14721;42.668;23.386;2023-04-16T11:22:36;94576.94;;;19.32;40.53
27210;BME280;14721;42.668;23.386;2023-04-16T11:25:04;94582.34;;;19.32;39.90
27210;BME280;14721;42.668;23.386;2023-04-16T11:27:30;94577.19;;;19.37;40.01
27210;BME280;14721;42.668;23.386;2023-04-16T11:30:06;94571.03;;;19.28;40.18
27210;BME280;14721;42.668;23.386;2023-04-16T11:32:35;94561.47;;;19.18;40.38
27210;BME280;14721;42.668;23.386;2023-04-16T11:35:02;94563.53;;;18.93;40.51
27210;BME280;14721;42.668;23.386;2023-04-16T11:37:36;94554.91;;;19.12;40.38
27210;BME280;14721;42.668;23.386;2023-04-16T11:40:03;94557.16;;;19.23;40.67
27210;BME280;14721;42.668;23.386;2023-04-16T11:42:31;94549.94;;;19.38;40.31
27210;BME280;14721;42.668;23.386;2023-04-16T11:44:58;94547.44;;;19.66;39.83
27210;BME280;14721;42.668;23.386;2023-04-16T11:47:28;94536.38;;;19.82;39.56
27210;BME280;14721;42.668;23.386;2023-04-16T11:49:57;94535.16;;;19.99;38.88
27210;BME280;14721;42.668;23.386;2023-04-16T11:52:32;94537.56;;;20.23;38.76
27210;BME280;14721;42.668;23.386;2023-04-16T11:54:58;94535.16;;;20.28;38.46
27210;BME280;14721;42.668;23.386;2023-04-16T11:57:30;94526.19;;;20.13;38.86
27210;BME280;14721;42.668;23.386;2023-04-16T11:59:58;94520.94;;;20.11;39.29
27210;BME280;14721;42.668;23.386;2023-04-16T12:05:03;94508.72;;;20.36;38.61
27210;BME280;14721;42.668;23.386;2023-04-16T12:07:29;94509.88;;;20.27;38.30
27210;BME280;14721;42.668;23.386;2023-04-16T12:10:07;94509.72;;;20.50;38.61
27210;BME280;14721;42.668;23.386;2023-04-16T12:12:32;94494.97;;;20.80;38.13
27210;BME280;14721;42.668;23.386;2023-04-16T12:15:00;94494.22;;;21.14;37.06
27210;BME280;14721;42.668;23.386;2023-04-16T12:17:28;94488.44;;;21.23;36.76
27210;BME280;14721;42.668;23.386;2023-04-16T12:19:59;94492.94;;;21.37;36.50
27210;BME280;14721;42.668;23.386;2023-04-16T12:22:26;94491.16;;;21.23;36.98
27210;BME280;14721;42.668;23.386;2023-04-16T12:24:58;94479.06;;;20.98;37.28
27210;BME280;14721;42.668;23.386;2023-04-16T12:27:24;94483.13;;;20.88;37.81
27210;BME280;14721;42.668;23.386;2023-04-16T12:30:05;94485.00;;;20.66;38.30
27210;BME280;14721;42.668;23.386;2023-04-16T12:32:31;94475.38;;;20.64;38.12
27210;BME280;14721;42.668;23.386;2023-04-16T12:34:57;94475.38;;;20.64;38.54
27210;BME280;14721;42.668;23.386;2023-04-16T12:37:22;94476.78;;;20.60;38.66
27210;BME280;14721;42.668;23.386;2023-04-16T12:39:48;94483.41;;;20.51;38.34
27210;BME280;14721;42.668;23.386;2023-04-16T12:42:13;94478.97;;;19.93;41.71
27210;BME280;14721;42.668;23.386;2023-04-16T12:44:39;94476.94;;;19.08;43.23
27210;BME280;14721;42.668;23.386;2023-04-16T12:47:04;94495.28;;;18.46;45.65
27210;BME280;14721;42.668;23.386;2023-04-16T12:49:30;94479.06;;;18.46;48.34
27210;BME280;14721;42.668;23.386;2023-04-16T12:51:56;94480.56;;;18.63;49.18
27210;BME280;14721;42.668;23.386;2023-04-16T12:54:21;94481.53;;;18.70;48.33
27210;BME280;14721;42.668;23.386;2023-04-16T12:56:46;94473.09;;;18.88;48.75
27210;BME280;14721;42.668;23.386;2023-04-16T12:59:12;94472.66;;;18.99;48.99